Casterton, Victoria

7:10 AM AEST on October 02, 2014 (GMT +1000)
Mount Gambier | Change Station
CLOSE
Current Station
Airport
Location: Mount Gambier Airport,
Elevation: 64 m
Nearby Weather Stations

Elev 64 m 37.75 °S, 140.79 °E | Updated 10 minutes ago

Mostly Cloudy
Mostly Cloudy
6 °C
Feels Like 4 °C
N
7
Wind Variable Wind from NW

Today
High -- | Low -- °C
--% Chance of Precip.
Yesterday
High -- | Low -- °C
Precip. -- mm
6:09 AM 6:39 PM
Waxing Crescent, 51% visible
Pressure 1023 hPa
Visibility 10.0 kilometers
Clouds Mostly Cloudy 1066 m
Windchill 4 °C
Dew Point 4 °C
Humidity 87%
Rainfall 0.0 mm
Snow Depth Not available.
UV 0 out of 12
Pollen Not available.
Air Quality Not available.
Flu Activity Not available.
METAR YMTG 302100Z 31004KT 9999 BKN035 06/04 Q1023

More Conditions Fewer Conditions

Pressure 1023 hPa
Visibility 10.0 kilometers
Clouds Mostly Cloudy 1066 m
Windchill 4 °C
Dew Point 4 °C
Humidity 87%
Rainfall 0.0 mm
Snow Depth Not available.
UV 0 out of 12
Pollen Not available.
Air Quality Not available.
Flu Activity Not available.
METAR YMTG 302100Z 31004KT 9999 BKN035 06/04 Q1023

More Conditions Fewer Conditions

10-Day Weather Forecast

Almanac

Astronomy

Oct. 02, 2014 Rise Set
Actual Time 6:09 AM AEST 6:39 PM AEST
Civil Twilight 5:42 AM AEST 7:05 PM AEST
Nautical Twilight 5:12 AM AEST 7:36 PM AEST
Astronomical Twilight 4:40 AM AEST 8:08 PM AEST
Moon 11:46 AM AEST (10/2) 1:16 AM AEST (10/2)
Length of Visible Light 13h 22m
Length of Day
12h 29m
Tomorrow will be 2m 24s longer.
Waxing Crescent, 51% of the Moon is Illuminated
Oct 1
Waxing Crescent
Oct 8
Full
Oct 15
Last Quarter
Oct 23
New
Oct 30
First Quarter

Yesterday's Extremes

Country Highs Country Lows

Community

WunderPhotos

Upload Photos

1,758,058 photos uploaded!

WunderBlogs® & News

By Dr. Jeff Masters
Director of Meteorology, Weather Underground
By Kari Strenfel
Meteorologist, Weather Underground
By Christopher C. Burt
Weather Historian, Weather Underground
October 1, 2014
October 1, 2014
October 1, 2014

Nearby

Snow Depth

Not available.

Earthquake Activity

City Distance Mag. Time & Date
No recent earthquake activity has been reported nearby.
Minimum magnitude displayed is 2.5.

Coastal Water Temperatures

Place Temperature
No Stations Reporting

Nearby Weather Stations